sensor_id;sensor_type;location;lat;lon;timestamp;temperature;humidity
52879;DHT22;38747;53.140;6.498;2022-09-09T00:04:32;14.70;99.90
52879;DHT22;38747;53.140;6.498;2022-09-09T00:07:31;14.60;99.90
52879;DHT22;38747;53.140;6.498;2022-09-09T00:10:09;14.60;99.90
52879;DHT22;38747;53.140;6.498;2022-09-09T00:12:54;14.60;99.90
52879;DHT22;38747;53.140;6.498;2022-09-09T00:15:25;14.60;99.90
52879;DHT22;38747;53.140;6.498;2022-09-09T00:18:13;14.60;99.90
52879;DHT22;38747;53.140;6.498;2022-09-09T00:20:49;14.60;99.90
52879;DHT22;38747;53.140;6.498;2022-09-09T00:23:30;14.50;99.90
52879;DHT22;38747;53.140;6.498;2022-09-09T00:28:55;14.50;99.90
52879;DHT22;38747;53.140;6.498;2022-09-09T00:31:28;14.50;99.90
52879;DHT22;38747;53.140;6.498;2022-09-09T00:33:58;14.50;99.90
52879;DHT22;38747;53.140;6.498;2022-09-09T00:36:27;14.50;99.90
52879;DHT22;38747;53.140;6.498;2022-09-09T00:38:58;14.40;99.90
52879;DHT22;38747;53.140;6.498;2022-09-09T00:55:30;14.30;99.90
52879;DHT22;38747;53.140;6.498;2022-09-09T00:57:59;14.30;99.90
52879;DHT22;38747;53.140;6.498;2022-09-09T01:00:30;14.20;99.90
52879;DHT22;38747;53.140;6.498;2022-09-09T01:03:07;14.20;99.90
52879;DHT22;38747;53.140;6.498;2022-09-09T01:05:46;14.20;99.90
52879;DHT22;38747;53.140;6.498;2022-09-09T01:11:21;14.10;99.90
52879;DHT22;38747;53.140;6.498;2022-09-09T01:13:52;14.10;99.90
52879;DHT22;38747;53.140;6.498;2022-09-09T01:16:19;14.10;99.90
52879;DHT22;38747;53.140;6.498;2022-09-09T01:18:48;14.10;99.90
52879;DHT22;38747;53.140;6.498;2022-09-09T01:21:45;14.10;99.90
52879;DHT22;38747;53.140;6.498;2022-09-09T01:24:35;14.00;99.90
52879;DHT22;38747;53.140;6.498;2022-09-09T01:27:05;14.00;99.90
52879;DHT22;38747;53.140;6.498;2022-09-09T01:29:31;14.00;99.90
52879;DHT22;38747;53.140;6.498;2022-09-09T01:32:35;13.90;99.90
52879;DHT22;38747;53.140;6.498;2022-09-09T01:34:47;14.00;99.90
52879;DHT22;38747;53.140;6.498;2022-09-09T01:37:13;13.90;99.90
52879;DHT22;38747;53.140;6.498;2022-09-09T01:39:40;13.90;99.90
52879;DHT22;38747;53.140;6.498;2022-09-09T01:42:08;13.90;99.90
52879;DHT22;38747;53.140;6.498;2022-09-09T01:44:35;13.90;99.90
52879;DHT22;38747;53.140;6.498;2022-09-09T01:47:02;13.90;99.90
52879;DHT22;38747;53.140;6.498;2022-09-09T01:49:28;13.80;99.90
52879;DHT22;38747;53.140;6.498;2022-09-09T01:51:55;13.80;99.90
52879;DHT22;38747;53.140;6.498;2022-09-09T01:54:24;13.80;99.90
52879;DHT22;38747;53.140;6.498;2022-09-09T02:02:39;13.80;99.90
52879;DHT22;38747;53.140;6.498;2022-09-09T02:08:08;13.80;99.90
52879;DHT22;38747;53.140;6.498;2022-09-09T02:11:07;13.80;99.90
52879;DHT22;38747;53.140;6.498;2022-09-09T02:13:37;13.80;99.90
52879;DHT22;38747;53.140;6.498;2022-09-09T02:16:27;13.80;99.90
52879;DHT22;38747;53.140;6.498;2022-09-09T02:21:44;13.90;99.90
52879;DHT22;38747;53.140;6.498;2022-09-09T02:24:13;13.90;99.90
52879;DHT22;38747;53.140;6.498;2022-09-09T02:26:42;13.90;99.90
52879;DHT22;38747;53.140;6.498;2022-09-09T02:29:13;14.00;99.90
52879;DHT22;38747;53.140;6.498;2022-09-09T02:31:41;14.00;99.90
52879;DHT22;38747;53.140;6.498;2022-09-09T02:34:09;14.00;99.90
52879;DHT22;38747;53.140;6.498;2022-09-09T02:36:37;14.10;99.90
52879;DHT22;38747;53.140;6.498;2022-09-09T02:39:07;14.10;99.90
52879;DHT22;38747;53.140;6.498;2022-09-09T02:41:35;14.10;99.90
52879;DHT22;38747;53.140;6.498;2022-09-09T02:44:05;14.10;99.90
52879;DHT22;38747;53.140;6.498;2022-09-09T02:46:41;14.10;99.90
52879;DHT22;38747;53.140;6.498;2022-09-09T02:49:18;14.10;99.90
52879;DHT22;38747;53.140;6.498;2022-09-09T02:52:04;14.10;99.90
52879;DHT22;38747;53.140;6.498;2022-09-09T02:54:38;14.10;99.90
52879;DHT22;38747;53.140;6.498;2022-09-09T02:59:30;14.20;99.90
52879;DHT22;38747;53.140;6.498;2022-09-09T03:01:56;14.20;99.90
52879;DHT22;38747;53.140;6.498;2022-09-09T03:04:21;14.20;99.90
52879;DHT22;38747;53.140;6.498;2022-09-09T03:06:47;14.20;99.90
52879;DHT22;38747;53.140;6.498;2022-09-09T03:09:13;14.20;99.90
52879;DHT22;38747;53.140;6.498;2022-09-09T03:11:38;14.30;99.90
52879;DHT22;38747;53.140;6.498;2022-09-09T03:14:04;14.30;99.90
52879;DHT22;38747;53.140;6.498;2022-09-09T03:16:30;14.30;99.90
52879;DHT22;38747;53.140;6.498;2022-09-09T03:18:56;14.30;99.90
52879;DHT22;38747;53.140;6.498;2022-09-09T03:21:21;14.30;99.90
52879;DHT22;38747;53.140;6.498;2022-09-09T03:23:47;14.30;99.90
52879;DHT22;38747;53.140;6.498;2022-09-09T03:26:13;14.30;99.90
52879;DHT22;38747;53.140;6.498;2022-09-09T03:28:41;14.40;99.90
52879;DHT22;38747;53.140;6.498;2022-09-09T03:31:07;14.40;99.90
52879;DHT22;38747;53.140;6.498;2022-09-09T03:33:38;14.40;99.90
52879;DHT22;38747;53.140;6.498;2022-09-09T03:36:05;14.40;99.90
52879;DHT22;38747;53.140;6.498;2022-09-09T03:38:30;14.40;99.90
52879;DHT22;38747;53.140;6.498;2022-09-09T03:40:57;14.40;99.90
52879;DHT22;38747;53.140;6.498;2022-09-09T03:43:24;14.40;99.90
52879;DHT22;38747;53.140;6.498;2022-09-09T03:45:50;14.50;99.90
52879;DHT22;38747;53.140;6.498;2022-09-09T03:48:17;14.50;99.90
52879;DHT22;38747;53.140;6.498;2022-09-09T03:50:47;14.50;99.90
52879;DHT22;38747;53.140;6.498;2022-09-09T03:53:15;14.50;99.90
52879;DHT22;38747;53.140;6.498;2022-09-09T03:55:45;14.50;99.90
52879;DHT22;38747;53.140;6.498;2022-09-09T03:58:15;14.60;99.90
52879;DHT22;38747;53.140;6.498;2022-09-09T04:00:41;14.50;99.90
52879;DHT22;38747;53.140;6.498;2022-09-09T04:03:09;14.60;99.90
52879;DHT22;38747;53.140;6.498;2022-09-09T04:05:35;14.60;99.90
52879;DHT22;38747;53.140;6.498;2022-09-09T04:08:05;14.60;99.90
52879;DHT22;38747;53.140;6.498;2022-09-09T04:10:31;14.60;99.90
52879;DHT22;38747;53.140;6.498;2022-09-09T04:12:56;14.60;99.90
52879;DHT22;38747;53.140;6.498;2022-09-09T04:15:22;14.60;99.90
52879;DHT22;38747;53.140;6.498;2022-09-09T04:17:48;14.60;99.90
52879;DHT22;38747;53.140;6.498;2022-09-09T04:20:13;14.60;99.90
52879;DHT22;38747;53.140;6.498;2022-09-09T04:22:39;14.60;99.90
52879;DHT22;38747;53.140;6.498;2022-09-09T04:25:07;14.60;99.90
52879;DHT22;38747;53.140;6.498;2022-09-09T04:27:33;14.60;99.90
52879;DHT22;38747;53.140;6.498;2022-09-09T04:29:59;14.60;99.90
52879;DHT22;38747;53.140;6.498;2022-09-09T04:32:25;14.60;99.90
52879;DHT22;38747;53.140;6.498;2022-09-09T04:34:53;14.60;99.90
52879;DHT22;38747;53.140;6.498;2022-09-09T04:37:19;14.60;99.90
52879;DHT22;38747;53.140;6.498;2022-09-09T04:39:45;14.60;99.90
52879;DHT22;38747;53.140;6.498;2022-09-09T04:42:11;14.60;99.90
52879;DHT22;38747;53.140;6.498;2022-09-09T04:44:36;14.60;99.90
52879;DHT22;38747;53.140;6.498;2022-09-09T04:47:02;14.60;99.90
52879;DHT22;38747;53.140;6.498;2022-09-09T04:49:28;14.60;99.90
52879;DHT22;38747;53.140;6.498;2022-09-09T04:51:53;14.60;99.90
52879;DHT22;38747;53.140;6.498;2022-09-09T04:54:19;14.60;99.90
52879;DHT22;38747;53.140;6.498;2022-09-09T04:56:44;14.60;99.90
52879;DHT22;38747;53.140;6.498;2022-09-09T04:59:10;14.60;99.90
52879;DHT22;38747;53.140;6.498;2022-09-09T05:01:35;14.60;99.90
52879;DHT22;38747;53.140;6.498;2022-09-09T05:04:02;14.60;99.90
52879;DHT22;38747;53.140;6.498;2022-09-09T05:06:28;14.60;99.90
52879;DHT22;38747;53.140;6.498;2022-09-09T05:08:57;14.60;99.90
52879;DHT22;38747;53.140;6.498;2022-09-09T05:11:28;14.60;99.90
52879;DHT22;38747;53.140;6.498;2022-09-09T05:13:55;14.60;99.90
52879;DHT22;38747;53.140;6.498;2022-09-09T05:16:22;14.50;99.90
52879;DHT22;38747;53.140;6.498;2022-09-09T05:18:48;14.60;99.90
52879;DHT22;38747;53.140;6.498;2022-09-09T05:21:17;14.50;99.90
52879;DHT22;38747;53.140;6.498;2022-09-09T05:23:44;14.60;99.90
52879;DHT22;38747;53.140;6.498;2022-09-09T05:26:16;14.60;99.90
52879;DHT22;38747;53.140;6.498;2022-09-09T05:28:42;14.60;99.90
52879;DHT22;38747;53.140;6.498;2022-09-09T05:31:09;14.50;99.90
52879;DHT22;38747;53.140;6.498;2022-09-09T05:33:37;14.50;99.90
52879;DHT22;38747;53.140;6.498;2022-09-09T05:36:08;14.60;99.90
52879;DHT22;38747;53.140;6.498;2022-09-09T05:38:34;14.60;99.90
52879;DHT22;38747;53.140;6.498;2022-09-09T05:41:01;14.60;99.90
52879;DHT22;38747;53.140;6.498;2022-09-09T05:43:28;14.60;99.90
52879;DHT22;38747;53.140;6.498;2022-09-09T05:48:31;14.60;99.90
52879;DHT22;38747;53.140;6.498;2022-09-09T05:50:58;14.60;99.90
52879;DHT22;38747;53.140;6.498;2022-09-09T05:53:24;14.60;99.90
52879;DHT22;38747;53.140;6.498;2022-09-09T05:55:49;14.60;99.90
52879;DHT22;38747;53.140;6.498;2022-09-09T05:58:15;14.60;99.90
52879;DHT22;38747;53.140;6.498;2022-09-09T06:00:42;14.70;99.90
52879;DHT22;38747;53.140;6.498;2022-09-09T06:03:12;14.60;99.90
52879;DHT22;38747;53.140;6.498;2022-09-09T06:05:38;14.70;99.90
52879;DHT22;38747;53.140;6.498;2022-09-09T06:08:04;14.70;99.90
52879;DHT22;38747;53.140;6.498;2022-09-09T06:10:29;14.70;99.90
52879;DHT22;38747;53.140;6.498;2022-09-09T06:12:55;14.70;99.90
52879;DHT22;38747;53.140;6.498;2022-09-09T06:15:20;14.70;99.90
52879;DHT22;38747;53.140;6.498;2022-09-09T06:17:46;14.80;99.90
52879;DHT22;38747;53.140;6.498;2022-09-09T06:20:12;14.80;99.90
52879;DHT22;38747;53.140;6.498;2022-09-09T06:22:40;14.80;99.90
52879;DHT22;38747;53.140;6.498;2022-09-09T06:25:08;14.80;99.90
52879;DHT22;38747;53.140;6.498;2022-09-09T06:27:34;14.80;99.90
52879;DHT22;38747;53.140;6.498;2022-09-09T06:29:59;14.90;99.90
52879;DHT22;38747;53.140;6.498;2022-09-09T06:32:25;14.90;99.90
52879;DHT22;38747;53.140;6.498;2022-09-09T06:34:52;14.90;99.90
52879;DHT22;38747;53.140;6.498;2022-09-09T06:37:18;14.90;99.90
52879;DHT22;38747;53.140;6.498;2022-09-09T06:39:44;14.90;99.90
52879;DHT22;38747;53.140;6.498;2022-09-09T06:42:10;15.00;99.90
52879;DHT22;38747;53.140;6.498;2022-09-09T06:44:35;15.00;99.90
52879;DHT22;38747;53.140;6.498;2022-09-09T06:47:04;15.00;99.90
52879;DHT22;38747;53.140;6.498;2022-09-09T06:49:30;15.00;99.90
52879;DHT22;38747;53.140;6.498;2022-09-09T06:51:56;15.10;99.90
52879;DHT22;38747;53.140;6.498;2022-09-09T06:54:22;15.10;99.90
52879;DHT22;38747;53.140;6.498;2022-09-09T06:56:49;15.10;99.90
52879;DHT22;38747;53.140;6.498;2022-09-09T06:59:15;15.10;99.90
52879;DHT22;38747;53.140;6.498;2022-09-09T07:01:42;15.10;99.90
52879;DHT22;38747;53.140;6.498;2022-09-09T07:04:12;15.10;99.90
52879;DHT22;38747;53.140;6.498;2022-09-09T07:06:43;15.10;99.90
52879;DHT22;38747;53.140;6.498;2022-09-09T07:09:11;15.10;99.90
52879;DHT22;38747;53.140;6.498;2022-09-09T07:11:42;15.10;99.90
52879;DHT22;38747;53.140;6.498;2022-09-09T07:14:09;15.20;99.90
52879;DHT22;38747;53.140;6.498;2022-09-09T07:16:35;15.20;99.90
52879;DHT22;38747;53.140;6.498;2022-09-09T07:19:03;15.20;99.90
52879;DHT22;38747;53.140;6.498;2022-09-09T07:21:30;15.20;99.90
52879;DHT22;38747;53.140;6.498;2022-09-09T07:23:56;15.20;99.90
52879;DHT22;38747;53.140;6.498;2022-09-09T07:26:24;15.30;99.90
52879;DHT22;38747;53.140;6.498;2022-09-09T07:28:50;15.30;99.90
52879;DHT22;38747;53.140;6.498;2022-09-09T07:33:50;15.40;99.90
52879;DHT22;38747;53.140;6.498;2022-09-09T07:36:18;15.50;99.90
52879;DHT22;38747;53.140;6.498;2022-09-09T07:38:49;15.50;99.90
52879;DHT22;38747;53.140;6.498;2022-09-09T07:41:20;15.60;99.90
52879;DHT22;38747;53.140;6.498;2022-09-09T07:43:48;15.70;99.90
52879;DHT22;38747;53.140;6.498;2022-09-09T07:46:15;15.80;99.90
52879;DHT22;38747;53.140;6.498;2022-09-09T07:48:45;15.80;99.90
52879;DHT22;38747;53.140;6.498;2022-09-09T07:51:15;15.80;99.90
52879;DHT22;38747;53.140;6.498;2022-09-09T07:53:45;15.90;99.90
52879;DHT22;38747;53.140;6.498;2022-09-09T07:56:13;15.90;99.90
52879;DHT22;38747;53.140;6.498;2022-09-09T07:58:40;16.00;99.90
52879;DHT22;38747;53.140;6.498;2022-09-09T08:01:15;16.00;99.90
52879;DHT22;38747;53.140;6.498;2022-09-09T08:03:44;16.10;99.90
52879;DHT22;38747;53.140;6.498;2022-09-09T08:06:10;16.20;99.90
52879;DHT22;38747;53.140;6.498;2022-09-09T08:08:36;16.20;99.90
52879;DHT22;38747;53.140;6.498;2022-09-09T08:11:14;16.30;99.90
52879;DHT22;38747;53.140;6.498;2022-09-09T08:13:41;16.30;99.90
52879;DHT22;38747;53.140;6.498;2022-09-09T08:16:17;16.40;99.90
52879;DHT22;38747;53.140;6.498;2022-09-09T08:18:43;16.50;99.90
52879;DHT22;38747;53.140;6.498;2022-09-09T08:23:40;16.60;99.90
52879;DHT22;38747;53.140;6.498;2022-09-09T08:26:15;16.70;99.90
52879;DHT22;38747;53.140;6.498;2022-09-09T08:28:41;16.70;99.90
52879;DHT22;38747;53.140;6.498;2022-09-09T08:31:20;16.80;99.90
52879;DHT22;38747;53.140;6.498;2022-09-09T08:33:47;16.80;99.90
52879;DHT22;38747;53.140;6.498;2022-09-09T08:36:19;16.80;99.90
52879;DHT22;38747;53.140;6.498;2022-09-09T08:38:50;16.90;99.90
52879;DHT22;38747;53.140;6.498;2022-09-09T08:55:53;17.40;99.90
52879;DHT22;38747;53.140;6.498;2022-09-09T08:58:21;17.50;99.90
52879;DHT22;38747;53.140;6.498;2022-09-09T09:09:35;17.80;99.90
52879;DHT22;38747;53.140;6.498;2022-09-09T09:12:19;17.80;99.90
52879;DHT22;38747;53.140;6.498;2022-09-09T09:14:46;17.90;99.90
52879;DHT22;38747;53.140;6.498;2022-09-09T09:19:41;18.20;99.90
52879;DHT22;38747;53.140;6.498;2022-09-09T09:22:23;18.30;99.90
52879;DHT22;38747;53.140;6.498;2022-09-09T09:27:33;18.70;99.90
52879;DHT22;38747;53.140;6.498;2022-09-09T09:30:10;18.70;99.90
52879;DHT22;38747;53.140;6.498;2022-09-09T09:32:39;18.80;99.90
52879;DHT22;38747;53.140;6.498;2022-09-09T09:35:12;18.70;99.90
52879;DHT22;38747;53.140;6.498;2022-09-09T09:37:40;18.60;99.90
52879;DHT22;38747;53.140;6.498;2022-09-09T09:40:14;18.60;99.90
52879;DHT22;38747;53.140;6.498;2022-09-09T09:42:52;18.60;99.90
52879;DHT22;38747;53.140;6.498;2022-09-09T09:45:31;18.70;99.90
52879;DHT22;38747;53.140;6.498;2022-09-09T09:48:03;18.70;99.90
52879;DHT22;38747;53.140;6.498;2022-09-09T09:50:30;18.60;99.90
52879;DHT22;38747;53.140;6.498;2022-09-09T09:53:04;18.60;99.90
52879;DHT22;38747;53.140;6.498;2022-09-09T09:55:32;18.50;99.90
52879;DHT22;38747;53.140;6.498;2022-09-09T09:58:04;18.50;99.90
52879;DHT22;38747;53.140;6.498;2022-09-09T10:00:31;18.40;99.90
52879;DHT22;38747;53.140;6.498;2022-09-09T10:02:59;18.30;99.90
52879;DHT22;38747;53.140;6.498;2022-09-09T10:05:30;18.30;99.90
52879;DHT22;38747;53.140;6.498;2022-09-09T10:08:12;18.40;99.90
52879;DHT22;38747;53.140;6.498;2022-09-09T10:13:48;18.40;99.90
52879;DHT22;38747;53.140;6.498;2022-09-09T10:19:15;18.40;99.90
52879;DHT22;38747;53.140;6.498;2022-09-09T10:27:49;18.60;99.90
52879;DHT22;38747;53.140;6.498;2022-09-09T10:30:24;18.70;99.90
52879;DHT22;38747;53.140;6.498;2022-09-09T10:33:09;18.80;99.90
52879;DHT22;38747;53.140;6.498;2022-09-09T10:38:15;19.20;99.90
52879;DHT22;38747;53.140;6.498;2022-09-09T10:51:55;19.80;99.90
52879;DHT22;38747;53.140;6.498;2022-09-09T10:59:51;19.60;99.90
52879;DHT22;38747;53.140;6.498;2022-09-09T11:02:29;19.60;99.90
52879;DHT22;38747;53.140;6.498;2022-09-09T11:08:01;19.60;99.90
52879;DHT22;38747;53.140;6.498;2022-09-09T11:13:40;20.10;99.90
52879;DHT22;38747;53.140;6.498;2022-09-09T11:16:22;20.30;99.90
52879;DHT22;38747;53.140;6.498;2022-09-09T11:18:57;20.50;99.90
52879;DHT22;38747;53.140;6.498;2022-09-09T11:21:34;20.70;99.90
52879;DHT22;38747;53.140;6.498;2022-09-09T11:24:37;20.70;99.90
52879;DHT22;38747;53.140;6.498;2022-09-09T11:27:21;20.50;99.90
52879;DHT22;38747;53.140;6.498;2022-09-09T11:38:29;20.60;99.90
52879;DHT22;38747;53.140;6.498;2022-09-09T11:41:01;20.40;99.90
52879;DHT22;38747;53.140;6.498;2022-09-09T11:43:40;20.30;99.90
52879;DHT22;38747;53.140;6.498;2022-09-09T11:46:06;20.10;99.90
52879;DHT22;38747;53.140;6.498;2022-09-09T11:48:37;20.00;99.90
52879;DHT22;38747;53.140;6.498;2022-09-09T11:51:09;20.10;99.90
52879;DHT22;38747;53.140;6.498;2022-09-09T11:53:54;20.30;99.90
52879;DHT22;38747;53.140;6.498;2022-09-09T11:58:59;20.60;99.90
52879;DHT22;38747;53.140;6.498;2022-09-09T12:04:15;20.40;99.90
52879;DHT22;38747;53.140;6.498;2022-09-09T12:09:58;20.40;99.90
52879;DHT22;38747;53.140;6.498;2022-09-09T12:17:46;20.50;99.90
52879;DHT22;38747;53.140;6.498;2022-09-09T12:20:26;20.60;99.90
52879;DHT22;38747;53.140;6.498;2022-09-09T12:33:37;20.30;99.90
52879;DHT22;38747;53.140;6.498;2022-09-09T12:36:12;20.40;99.90
52879;DHT22;38747;53.140;6.498;2022-09-09T12:38:40;20.40;99.90
52879;DHT22;38747;53.140;6.498;2022-09-09T12:41:15;20.50;99.90
52879;DHT22;38747;53.140;6.498;2022-09-09T12:43:44;20.50;99.90
52879;DHT22;38747;53.140;6.498;2022-09-09T12:46:17;20.70;99.90
52879;DHT22;38747;53.140;6.498;2022-09-09T12:48:47;20.90;99.90
52879;DHT22;38747;53.140;6.498;2022-09-09T12:51:24;21.10;99.90
52879;DHT22;38747;53.140;6.498;2022-09-09T12:53:51;21.30;99.90
52879;DHT22;38747;53.140;6.498;2022-09-09T12:56:22;21.10;99.90
52879;DHT22;38747;53.140;6.498;2022-09-09T12:58:51;21.30;99.90
52879;DHT22;38747;53.140;6.498;2022-09-09T13:01:27;21.30;99.90
52879;DHT22;38747;53.140;6.498;2022-09-09T13:03:54;21.30;99.90
52879;DHT22;38747;53.140;6.498;2022-09-09T13:06:22;21.20;99.90
52879;DHT22;38747;53.140;6.498;2022-09-09T13:08:53;21.10;99.90
52879;DHT22;38747;53.140;6.498;2022-09-09T13:11:35;21.20;99.90
52879;DHT22;38747;53.140;6.498;2022-09-09T13:14:02;21.10;99.90
52879;DHT22;38747;53.140;6.498;2022-09-09T13:16:32;21.20;99.90
52879;DHT22;38747;53.140;6.498;2022-09-09T13:19:09;21.30;99.90
52879;DHT22;38747;53.140;6.498;2022-09-09T13:21:39;21.40;99.90
52879;DHT22;38747;53.140;6.498;2022-09-09T13:24:19;21.40;99.90
52879;DHT22;38747;53.140;6.498;2022-09-09T13:27:04;21.40;99.90
52879;DHT22;38747;53.140;6.498;2022-09-09T13:29:32;21.40;99.90
52879;DHT22;38747;53.140;6.498;2022-09-09T13:32:19;21.20;99.90
52879;DHT22;38747;53.140;6.498;2022-09-09T13:34:52;21.20;99.90
52879;DHT22;38747;53.140;6.498;2022-09-09T13:37:38;21.00;99.90
52879;DHT22;38747;53.140;6.498;2022-09-09T13:40:12;20.70;99.90
52879;DHT22;38747;53.140;6.498;2022-09-09T13:42:42;20.70;99.90
52879;DHT22;38747;53.140;6.498;2022-09-09T13:45:19;20.60;99.90
52879;DHT22;38747;53.140;6.498;2022-09-09T13:47:49;20.70;99.90
52879;DHT22;38747;53.140;6.498;2022-09-09T13:50:28;20.70;99.90
52879;DHT22;38747;53.140;6.498;2022-09-09T13:52:56;20.60;99.90
52879;DHT22;38747;53.140;6.498;2022-09-09T13:55:24;20.60;99.90
52879;DHT22;38747;53.140;6.498;2022-09-09T13:58:01;20.70;99.90
52879;DHT22;38747;53.140;6.498;2022-09-09T14:00:30;20.80;99.90
52879;DHT22;38747;53.140;6.498;2022-09-09T14:02:57;21.00;99.90
52879;DHT22;38747;53.140;6.498;2022-09-09T14:05:22;21.00;99.90
52879;DHT22;38747;53.140;6.498;2022-09-09T14:07:49;21.10;99.90
52879;DHT22;38747;53.140;6.498;2022-09-09T14:10:15;20.90;99.90
52879;DHT22;38747;53.140;6.498;2022-09-09T14:12:40;20.80;99.90
52879;DHT22;38747;53.140;6.498;2022-09-09T14:15:09;20.90;99.90
52879;DHT22;38747;53.140;6.498;2022-09-09T14:17:35;20.90;99.90
52879;DHT22;38747;53.140;6.498;2022-09-09T14:20:05;20.80;99.90
52879;DHT22;38747;53.140;6.498;2022-09-09T14:22:35;20.80;99.90
52879;DHT22;38747;53.140;6.498;2022-09-09T14:25:01;20.70;99.90
52879;DHT22;38747;53.140;6.498;2022-09-09T14:27:27;20.40;99.90
52879;DHT22;38747;53.140;6.498;2022-09-09T14:29:52;20.40;99.90
52879;DHT22;38747;53.140;6.498;2022-09-09T14:32:18;20.10;99.90
52879;DHT22;38747;53.140;6.498;2022-09-09T14:34:44;20.00;99.90
52879;DHT22;38747;53.140;6.498;2022-09-09T14:37:10;19.90;99.90
52879;DHT22;38747;53.140;6.498;2022-09-09T14:39:36;19.80;99.90
52879;DHT22;38747;53.140;6.498;2022-09-09T14:42:01;19.70;99.90
52879;DHT22;38747;53.140;6.498;2022-09-09T14:44:27;19.60;99.90
52879;DHT22;38747;53.140;6.498;2022-09-09T14:46:53;19.50;99.90
52879;DHT22;38747;53.140;6.498;2022-09-09T14:49:19;19.60;99.90
52879;DHT22;38747;53.140;6.498;2022-09-09T14:51:45;19.60;99.90
52879;DHT22;38747;53.140;6.498;2022-09-09T14:54:10;19.60;99.90
52879;DHT22;38747;53.140;6.498;2022-09-09T14:56:36;19.70;99.90
52879;DHT22;38747;53.140;6.498;2022-09-09T14:59:02;19.70;99.90
52879;DHT22;38747;53.140;6.498;2022-09-09T15:01:29;19.80;99.90
52879;DHT22;38747;53.140;6.498;2022-09-09T15:04:03;20.00;99.90
52879;DHT22;38747;53.140;6.498;2022-09-09T15:06:34;20.10;99.90
52879;DHT22;38747;53.140;6.498;2022-09-09T15:09:00;20.10;99.90
52879;DHT22;38747;53.140;6.498;2022-09-09T15:11:28;20.10;99.90
52879;DHT22;38747;53.140;6.498;2022-09-09T15:13:55;20.10;99.90
52879;DHT22;38747;53.140;6.498;2022-09-09T15:16:23;20.30;99.90
52879;DHT22;38747;53.140;6.498;2022-09-09T15:18:52;20.30;99.90
52879;DHT22;38747;53.140;6.498;2022-09-09T15:21:21;20.40;99.90
52879;DHT22;38747;53.140;6.498;2022-09-09T15:23:48;20.50;99.90
52879;DHT22;38747;53.140;6.498;2022-09-09T15:26:14;20.50;99.90
52879;DHT22;38747;53.140;6.498;2022-09-09T15:28:41;20.50;99.90
52879;DHT22;38747;53.140;6.498;2022-09-09T15:31:22;20.50;99.90
52879;DHT22;38747;53.140;6.498;2022-09-09T15:33:56;20.50;99.90
52879;DHT22;38747;53.140;6.498;2022-09-09T15:36:39;20.50;99.90
52879;DHT22;38747;53.140;6.498;2022-09-09T15:39:08;20.50;99.90
52879;DHT22;38747;53.140;6.498;2022-09-09T15:41:35;20.30;99.90
52879;DHT22;38747;53.140;6.498;2022-09-09T15:44:01;20.20;99.90
52879;DHT22;38747;53.140;6.498;2022-09-09T15:49:17;19.70;99.90
52879;DHT22;38747;53.140;6.498;2022-09-09T15:51:45;19.70;99.90
52879;DHT22;38747;53.140;6.498;2022-09-09T15:54:16;19.50;99.90
52879;DHT22;38747;53.140;6.498;2022-09-09T15:56:44;19.40;99.90
52879;DHT22;38747;53.140;6.498;2022-09-09T15:59:11;19.40;99.90
52879;DHT22;38747;53.140;6.498;2022-09-09T16:01:37;19.30;99.90
52879;DHT22;38747;53.140;6.498;2022-09-09T16:04:06;19.20;99.90
52879;DHT22;38747;53.140;6.498;2022-09-09T16:06:31;19.10;99.90
52879;DHT22;38747;53.140;6.498;2022-09-09T16:08:59;19.10;99.90
52879;DHT22;38747;53.140;6.498;2022-09-09T16:11:30;19.00;99.90
52879;DHT22;38747;53.140;6.498;2022-09-09T16:13:57;19.00;99.90
52879;DHT22;38747;53.140;6.498;2022-09-09T16:16:25;19.00;99.90
52879;DHT22;38747;53.140;6.498;2022-09-09T16:18:53;18.90;99.90
52879;DHT22;38747;53.140;6.498;2022-09-09T16:21:28;18.90;99.90
52879;DHT22;38747;53.140;6.498;2022-09-09T16:23:55;18.90;99.90
52879;DHT22;38747;53.140;6.498;2022-09-09T16:26:22;18.80;99.90
52879;DHT22;38747;53.140;6.498;2022-09-09T16:28:49;18.80;99.90
52879;DHT22;38747;53.140;6.498;2022-09-09T16:31:19;18.80;99.90
52879;DHT22;38747;53.140;6.498;2022-09-09T16:33:46;18.90;99.90
52879;DHT22;38747;53.140;6.498;2022-09-09T16:36:14;18.80;99.90
52879;DHT22;38747;53.140;6.498;2022-09-09T16:38:41;18.80;99.90
52879;DHT22;38747;53.140;6.498;2022-09-09T16:41:09;18.80;99.90
52879;DHT22;38747;53.140;6.498;2022-09-09T16:43:36;18.70;99.90
52879;DHT22;38747;53.140;6.498;2022-09-09T16:46:03;18.80;99.90
52879;DHT22;38747;53.140;6.498;2022-09-09T16:48:35;18.70;99.90
52879;DHT22;38747;53.140;6.498;2022-09-09T16:51:06;18.70;99.90
52879;DHT22;38747;53.140;6.498;2022-09-09T16:53:33;18.60;99.90
52879;DHT22;38747;53.140;6.498;2022-09-09T16:56:05;18.60;99.90
52879;DHT22;38747;53.140;6.498;2022-09-09T16:58:31;18.60;99.90
52879;DHT22;38747;53.140;6.498;2022-09-09T17:00:58;18.50;99.90
52879;DHT22;38747;53.140;6.498;2022-09-09T17:03:24;18.50;99.90
52879;DHT22;38747;53.140;6.498;2022-09-09T17:05:50;18.40;99.90
52879;DHT22;38747;53.140;6.498;2022-09-09T17:08:16;18.40;99.90
52879;DHT22;38747;53.140;6.498;2022-09-09T17:10:42;18.40;99.90
52879;DHT22;38747;53.140;6.498;2022-09-09T17:13:08;18.30;99.90
52879;DHT22;38747;53.140;6.498;2022-09-09T17:15:38;18.30;99.90
52879;DHT22;38747;53.140;6.498;2022-09-09T17:18:04;18.30;99.90
52879;DHT22;38747;53.140;6.498;2022-09-09T17:20:29;18.30;99.90
52879;DHT22;38747;53.140;6.498;2022-09-09T17:22:55;18.30;99.90
52879;DHT22;38747;53.140;6.498;2022-09-09T17:25:20;18.20;99.90
52879;DHT22;38747;53.140;6.498;2022-09-09T17:27:47;18.20;99.90
52879;DHT22;38747;53.140;6.498;2022-09-09T17:30:13;18.20;99.90
52879;DHT22;38747;53.140;6.498;2022-09-09T17:32:38;18.20;99.90
52879;DHT22;38747;53.140;6.498;2022-09-09T17:35:04;18.20;99.90
52879;DHT22;38747;53.140;6.498;2022-09-09T17:37:31;18.10;99.90
52879;DHT22;38747;53.140;6.498;2022-09-09T17:39:56;18.10;99.90
52879;DHT22;38747;53.140;6.498;2022-09-09T17:42:23;18.10;99.90
52879;DHT22;38747;53.140;6.498;2022-09-09T17:44:48;18.10;99.90
52879;DHT22;38747;53.140;6.498;2022-09-09T17:47:14;18.00;99.90
52879;DHT22;38747;53.140;6.498;2022-09-09T17:49:40;18.10;99.90
52879;DHT22;38747;53.140;6.498;2022-09-09T17:52:05;18.00;99.90
52879;DHT22;38747;53.140;6.498;2022-09-09T17:54:31;18.00;99.90
52879;DHT22;38747;53.140;6.498;2022-09-09T17:56:57;18.00;99.90
52879;DHT22;38747;53.140;6.498;2022-09-09T17:59:24;18.00;99.90
52879;DHT22;38747;53.140;6.498;2022-09-09T18:01:50;17.90;99.90
52879;DHT22;38747;53.140;6.498;2022-09-09T18:04:18;17.90;99.90
52879;DHT22;38747;53.140;6.498;2022-09-09T18:06:47;17.90;99.90
52879;DHT22;38747;53.140;6.498;2022-09-09T18:09:16;17.90;99.90
52879;DHT22;38747;53.140;6.498;2022-09-09T18:11:45;17.90;99.90